Friday, March 27, 2015
22:11 UTC
  |  Log In   |  Register Free
Airport Search:

Independence Municipal Airport
(KIDP)

FAA data valid effective March 05, 2015 - April 30, 2015 (unless otherwise noted).

 
 
 
 
 
 
 
 
 
 
 
 
 
 

Current Aviation Weather for Independence Municipal Airport (KIDP)

The most recent METAR observation for KIDP was updated at: 1410
METAR Summary (Translated METAR)
KIDP
251355Z AUTO 08006KT 7SM CLR 10/08 A2993 RMK AO2
KCFV
251352Z AUTO 08005KT 6SM HZ CLR 11/08 A2993 RMK AO2 SLP136 T01110083
(10.6 nm SE from KIDP)
KPPF
251352Z AUTO VRB04KT 8SM CLR 11/08 A2996 RMK AO2 SLP142 T01060083
(16.6 nm NE from KIDP)
TAF
No TAF information found within 50 nm of KIDP
  Airport Weather Conditions for KIDP

 Current Weather at IDP
50° F
Fair
North winds at 6.9 mph
IDP NOAA Radar

Pressure: 30.19 in
Humidity: 40%
Wind: North at 6.9 MPH (6 KT)
Dew Point: 26.6°F
Visibility: 10.00 mi


Airport Weather Forecast for KIDP

Translated METAR and TAF for KIDP
Translated METAR for KIDP (2210 UTC 27 March 2015)
found at http://aviationweather.gov/adds/metars/
 
METAR text: KIDP 272155Z AUTO 34004KT 10SM CLR 10/M05 A3015 RMK AO2
Conditions at: KIDP (INDEPENDENCE , KS, US) observed 2155 UTC 27 March 2015
Temperature: 10.0°C (50°F)
Dewpoint: -5.0°C (23°F) [RH = 34%]
Pressure (altimeter): 30.15 inches Hg (1021.1 mb)
Winds: from the NNW (340 degrees) at 5 MPH (4 knots; 2.1 m/s)
Visibility: 10 or more miles (16+ km)
Ceiling: at least 12,000 feet AGL
Clouds: sky clear below 12,000 feet AGL
Weather: automated observation with no human augmentation;
there may or may not be significant weather present at this time
Translated TAF for KIDP

There is no translated TAF available for this airport

Find All Airport Services Find A Hotel Find A Rental Car Find A Golf Course Find A Restaurant $100 Hamburger



FBO's on the Field
FBO Company Facility Photos Services Transportation Aviation Fuel Prices: Prices include tax
Catering Weather Repair Courtesy Rental Type 100LL JetA JetA+ MOGAS 8087
 
City of Independence

This FBO has not yet been rated
FS:Phillips 66
Last Updated: Mar-12
Login to update fuel prices
SS:
Contact City of IndependenceMore FBO Information
 
Add another FBO Facility Photos Catering Weather Repair Courtesy Rental Type 100LL JetA JetA+ MOGAS 8087
Services Transportation Aviation Fuel Prices: Prices include tax


model-print
model-print
model-print
model-print